Terminal Aerodrome Forecast
Issued by NWS

Current Version | Previous Version | Text Only | Print | Product List | Glossary On
Versions: 1 2 3 4 5 6 7 8 9 10 11 12 13
846
FTUS46 KPDT 310521
TAFALW
TAF
KALW 310521Z 3106/0106 12006KT P6SM SCT200
     FM311800 33007KT P6SM SCT200=

USA.gov is the U.S. government's official web portal to all federal, state and local government web resources and services.